createdAt,value
2022-12-18T00:01:47.901Z,99715.00
2022-12-18T00:04:20.162Z,99716.23
2022-12-18T00:06:47.025Z,99721.88
2022-12-18T00:09:15.096Z,99720.94
2022-12-18T00:11:41.797Z,99723.17
2022-12-18T00:14:09.391Z,99722.71
2022-12-18T00:16:37.985Z,99724.91
2022-12-18T00:19:05.102Z,99723.41
2022-12-18T00:21:32.620Z,99729.92
2022-12-18T00:23:59.901Z,99731.88
2022-12-18T00:26:31.205Z,99734.02
2022-12-18T00:29:02.740Z,99741.86
2022-12-18T00:31:30.876Z,99745.54
2022-12-18T00:33:57.819Z,99748.42
2022-12-18T00:36:28.955Z,99743.92
2022-12-18T00:40:13.563Z,99748.16
2022-12-18T00:42:58.780Z,99751.77
2022-12-18T00:45:30.533Z,99759.86
2022-12-18T00:47:57.910Z,99754.90
2022-12-18T00:50:25.225Z,99754.77
2022-12-18T00:52:52.064Z,99759.23
2022-12-18T00:55:18.735Z,99764.14
2022-12-18T00:57:47.291Z,99768.75
2022-12-18T01:00:14.901Z,99777.10
2022-12-18T01:02:41.949Z,99777.55
2022-12-18T01:05:08.995Z,99779.66
2022-12-18T01:07:35.794Z,99780.68
2022-12-18T01:10:03.414Z,99788.72
2022-12-18T01:12:30.071Z,99787.73
2022-12-18T01:14:56.772Z,99789.83
2022-12-18T01:17:23.491Z,99788.65
2022-12-18T01:19:50.188Z,99798.19
2022-12-18T01:22:16.927Z,99802.73
2022-12-18T01:24:45.140Z,99810.21
2022-12-18T01:27:11.809Z,99812.38
2022-12-18T01:29:39.937Z,99810.84
2022-12-18T01:32:06.682Z,99808.39
2022-12-18T01:34:33.411Z,99813.21
2022-12-18T01:37:00.097Z,99819.35
2022-12-18T01:39:26.803Z,99821.89
2022-12-18T01:42:02.613Z,99828.30
2022-12-18T01:44:57.249Z,99823.98
2022-12-18T01:47:38.507Z,99823.15
2022-12-18T01:50:12.747Z,99823.56
2022-12-18T01:52:39.520Z,99835.48
2022-12-18T01:55:06.742Z,99836.14
2022-12-18T01:57:33.530Z,99839.09
2022-12-18T02:00:01.858Z,99843.23
2022-12-18T02:02:40.616Z,99845.16
2022-12-18T02:05:08.058Z,99844.98
2022-12-18T02:07:41.138Z,99850.48
2022-12-18T02:10:15.086Z,99858.66
2022-12-18T02:13:07.304Z,99860.49
2022-12-18T02:15:40.457Z,99866.30
2022-12-18T02:18:29.453Z,99863.64
2022-12-18T02:21:06.221Z,99867.02
2022-12-18T02:23:54.239Z,99867.67
2022-12-18T02:26:32.503Z,99877.02
2022-12-18T02:29:05.800Z,99876.65
2022-12-18T02:31:36.816Z,99878.46
2022-12-18T02:34:04.326Z,99874.35
2022-12-18T02:36:35.018Z,99884.31
2022-12-18T02:39:02.030Z,99889.89
2022-12-18T02:41:29.628Z,99891.17
2022-12-18T02:43:58.637Z,99900.16
2022-12-18T02:46:38.114Z,99901.44
2022-12-18T02:49:32.488Z,99900.80
2022-12-18T02:52:12.590Z,99916.77
2022-12-18T02:55:04.733Z,99921.94
2022-12-18T02:57:38.436Z,99926.74
2022-12-18T03:00:11.775Z,99934.65
2022-12-18T03:02:58.151Z,99941.71
2022-12-18T03:05:49.907Z,99944.81
2022-12-18T03:08:19.838Z,99952.27
2022-12-18T03:10:52.187Z,99959.82
2022-12-18T03:13:26.455Z,99961.38
2022-12-18T03:15:54.302Z,99969.73
2022-12-18T03:18:27.002Z,99966.88
2022-12-18T03:20:53.739Z,99973.98
2022-12-18T03:23:37.581Z,99976.77
2022-12-18T03:26:08.727Z,99980.70
2022-12-18T03:28:39.779Z,99982.26
2022-12-18T03:31:09.181Z,99982.16
2022-12-18T03:33:40.049Z,99980.07
2022-12-18T03:36:07.643Z,99980.19
2022-12-18T03:38:34.644Z,99992.06
2022-12-18T03:41:06.284Z,99994.83
2022-12-18T03:44:08.637Z,99998.61
2022-12-18T03:47:03.310Z,100000.56
2022-12-18T03:49:36.136Z,100000.80
2022-12-18T03:52:21.576Z,100007.30
2022-12-18T03:54:49.184Z,100011.41
2022-12-18T03:57:21.592Z,100018.45
2022-12-18T03:59:57.274Z,100021.56
2022-12-18T04:02:26.356Z,100033.66
2022-12-18T04:04:54.661Z,100034.39
2022-12-18T04:07:21.922Z,100039.29
2022-12-18T04:09:49.496Z,100037.38
2022-12-18T04:12:17.405Z,100040.28
2022-12-18T04:14:44.478Z,100044.52
2022-12-18T04:17:13.512Z,100049.48
2022-12-18T04:19:40.220Z,100047.91
2022-12-18T04:22:10.393Z,100059.80
2022-12-18T04:24:39.787Z,100069.22
2022-12-18T04:27:14.985Z,100069.55
2022-12-18T04:29:46.150Z,100074.27
2022-12-18T04:32:12.807Z,100075.94
2022-12-18T04:34:39.913Z,100081.89
2022-12-18T04:37:06.748Z,100079.18
2022-12-18T04:39:33.435Z,100090.91
2022-12-18T04:42:04.436Z,100090.60
2022-12-18T04:44:31.117Z,100097.67
2022-12-18T04:46:57.780Z,100101.92
2022-12-18T04:49:24.461Z,100103.46
2022-12-18T04:51:51.119Z,100107.46
2022-12-18T04:54:20.757Z,100113.14
2022-12-18T04:56:47.535Z,100118.87
2022-12-18T04:59:14.297Z,100124.45
2022-12-18T05:01:41.109Z,100129.92
2022-12-18T05:04:08.146Z,100134.81
2022-12-18T05:06:34.913Z,100134.46
2022-12-18T05:09:01.570Z,100133.80
2022-12-18T05:11:28.278Z,100130.12
2022-12-18T05:13:57.816Z,100141.31
2022-12-18T05:16:24.530Z,100143.30
2022-12-18T05:18:51.153Z,100156.57
2022-12-18T05:21:17.803Z,100152.45
2022-12-18T05:23:44.656Z,100166.20
2022-12-18T05:26:11.376Z,100169.95
2022-12-18T05:28:38.075Z,100176.70
2022-12-18T05:31:05.195Z,100174.66
2022-12-18T05:33:34.004Z,100182.99
2022-12-18T05:36:01.770Z,100186.46
2022-12-18T05:38:28.999Z,100194.36
2022-12-18T05:40:55.808Z,100192.94
2022-12-18T05:43:25.434Z,100202.05
2022-12-18T05:45:52.291Z,100203.25
2022-12-18T05:48:19.231Z,100213.61
2022-12-18T05:50:46.603Z,100215.95
2022-12-18T05:53:14.274Z,100216.54
2022-12-18T05:55:41.433Z,100220.95
2022-12-18T05:58:08.752Z,100223.61
2022-12-18T06:00:36.829Z,100229.98
2022-12-18T06:03:03.718Z,100239.66
2022-12-18T06:05:30.455Z,100246.62
2022-12-18T06:07:57.151Z,100243.21
2022-12-18T06:10:23.884Z,100248.06
2022-12-18T06:12:50.521Z,100253.16
2022-12-18T06:15:17.276Z,100262.58
2022-12-18T06:17:43.871Z,100265.16
2022-12-18T06:20:11.404Z,100271.41
2022-12-18T06:22:38.067Z,100277.27
2022-12-18T06:25:05.285Z,100277.34
2022-12-18T06:27:31.931Z,100277.36
2022-12-18T06:29:58.601Z,100286.65
2022-12-18T06:32:25.281Z,100289.33
2022-12-18T06:34:51.944Z,100290.85
2022-12-18T06:37:18.661Z,100293.33
2022-12-18T06:39:45.352Z,100290.63
2022-12-18T06:42:12.188Z,100305.29
2022-12-18T06:44:38.895Z,100310.13
2022-12-18T06:47:05.536Z,100317.51
2022-12-18T06:49:32.224Z,100316.70
2022-12-18T06:51:59.049Z,100329.97
2022-12-18T06:54:25.672Z,100325.38
2022-12-18T06:56:52.297Z,100324.44
2022-12-18T06:59:18.955Z,100333.08
2022-12-18T07:01:45.844Z,100332.19
2022-12-18T07:04:12.686Z,100337.25
2022-12-18T07:06:39.357Z,100344.31
2022-12-18T07:09:06.048Z,100340.18
2022-12-18T07:11:36.024Z,100345.41
2022-12-18T07:14:02.667Z,100351.65
2022-12-18T07:16:29.674Z,100351.42
2022-12-18T07:18:56.539Z,100349.29
2022-12-18T07:21:23.233Z,100354.63
2022-12-18T07:23:50.037Z,100354.05
2022-12-18T07:26:18.285Z,100357.41
2022-12-18T07:28:44.964Z,100362.09
2022-12-18T07:31:19.814Z,100368.60
2022-12-18T07:33:48.465Z,100373.28
2022-12-18T07:36:15.367Z,100383.80
2022-12-18T07:38:42.167Z,100385.89
2022-12-18T07:41:12.486Z,100392.88
2022-12-18T07:43:39.616Z,100397.50
2022-12-18T07:46:07.053Z,100408.45
2022-12-18T07:48:33.770Z,100409.84
2022-12-18T07:51:05.222Z,100406.77
2022-12-18T07:53:32.311Z,100419.92
2022-12-18T07:58:53.745Z,100421.27
2022-12-18T08:01:20.537Z,100425.95
2022-12-18T08:03:48.008Z,100435.58
2022-12-18T08:06:14.984Z,100438.16
2022-12-18T08:08:43.141Z,100440.57
2022-12-18T08:11:09.989Z,100455.33
2022-12-18T08:13:36.916Z,100458.30
2022-12-18T08:16:05.696Z,100464.80
2022-12-18T08:18:33.852Z,100463.09
2022-12-18T08:21:16.043Z,100467.98
2022-12-18T08:23:43.759Z,100473.10
2022-12-18T08:26:11.952Z,100474.84
2022-12-18T08:28:38.795Z,100476.72
2022-12-18T08:31:05.591Z,100476.65
2022-12-18T08:33:32.775Z,100475.13
2022-12-18T08:35:59.768Z,100472.61
2022-12-18T08:38:26.394Z,100474.48
2022-12-18T08:41:03.404Z,100473.50
2022-12-18T08:43:48.559Z,100476.02
2022-12-18T08:46:16.631Z,100474.48
2022-12-18T08:48:43.378Z,100471.14
2022-12-18T08:51:10.694Z,100479.09
2022-12-18T08:53:38.004Z,100484.27
2022-12-18T08:56:05.566Z,100490.41
2022-12-18T08:58:32.402Z,100495.09
2022-12-18T09:01:03.087Z,100502.47
2022-12-18T09:03:29.899Z,100510.67
2022-12-18T09:05:56.590Z,100503.42
2022-12-18T09:08:23.329Z,100506.13
2022-12-18T09:10:50.961Z,100508.37
2022-12-18T09:13:17.990Z,100511.35
2022-12-18T09:15:46.372Z,100514.40
2022-12-18T09:18:13.336Z,100518.77
2022-12-18T09:20:40.071Z,100521.77
2022-12-18T09:23:07.024Z,100515.91
2022-12-18T09:25:34.248Z,100527.92
2022-12-18T09:28:01.190Z,100522.96
2022-12-18T09:30:28.495Z,100528.01
2022-12-18T09:32:55.316Z,100520.95
2022-12-18T09:35:22.034Z,100527.16
2022-12-18T09:37:48.762Z,100534.01
2022-12-18T09:40:20.362Z,100533.66
2022-12-18T09:42:49.285Z,100542.76
2022-12-18T09:45:16.263Z,100544.70
2022-12-18T09:47:42.988Z,100550.09
2022-12-18T09:50:36.847Z,100563.45
2022-12-18T09:53:07.542Z,100562.36
2022-12-18T09:55:38.002Z,100561.59
2022-12-18T09:58:27.816Z,100568.60
2022-12-18T10:00:54.745Z,100560.41
2022-12-18T10:03:21.677Z,100566.42
2022-12-18T10:06:12.627Z,100567.59
2022-12-18T10:09:04.339Z,100572.66
2022-12-18T10:11:40.925Z,100575.58
2022-12-18T10:14:31.487Z,100580.60
2022-12-18T10:17:10.221Z,100588.89
2022-12-18T10:20:21.703Z,100591.48
2022-12-18T10:22:58.362Z,100593.29
2022-12-18T10:25:43.978Z,100597.20
2022-12-18T10:28:14.948Z,100595.89
2022-12-18T10:30:42.542Z,100596.67
2022-12-18T10:33:17.068Z,100597.41
2022-12-18T10:35:44.000Z,100598.90
2022-12-18T10:38:13.309Z,100602.55
2022-12-18T10:40:51.775Z,100596.63
2022-12-18T10:43:28.530Z,100600.10
2022-12-18T10:46:18.880Z,100607.00
2022-12-18T10:48:48.620Z,100607.66
2022-12-18T10:51:27.091Z,100609.77
2022-12-18T10:54:07.505Z,100612.77
2022-12-18T10:56:37.237Z,100610.04
2022-12-18T10:59:05.966Z,100616.34
2022-12-18T11:01:56.171Z,100614.70
2022-12-18T11:04:27.629Z,100618.98
2022-12-18T11:07:03.998Z,100625.35
2022-12-18T11:09:35.372Z,100630.85
2022-12-18T11:12:07.402Z,100633.99
2022-12-18T11:14:35.802Z,100633.61
2022-12-18T11:17:24.794Z,100642.59
2022-12-18T11:19:59.478Z,100645.01
2022-12-18T11:22:30.420Z,100647.57
2022-12-18T11:25:35.378Z,100651.48
2022-12-18T11:28:42.278Z,100659.30
2022-12-18T11:31:29.041Z,100662.27
2022-12-18T11:34:30.530Z,100670.58
2022-12-18T11:36:57.370Z,100674.27
2022-12-18T11:40:09.169Z,100676.09
2022-12-18T11:43:10.756Z,100680.23
2022-12-18T11:45:49.776Z,100685.70
2022-12-18T11:48:23.489Z,100692.89
2022-12-18T11:50:52.614Z,100693.55
2022-12-18T11:53:19.493Z,100704.02
2022-12-18T11:56:25.035Z,100701.08
2022-12-18T11:59:18.873Z,100702.88
2022-12-18T12:01:50.165Z,100703.08
2022-12-18T12:04:35.466Z,100710.98
2022-12-18T12:07:22.479Z,100717.41
2022-12-18T12:09:58.049Z,100716.52
2022-12-18T12:12:28.469Z,100720.21
2022-12-18T12:15:07.109Z,100726.38
2022-12-18T12:18:11.122Z,100724.32
2022-12-18T12:21:09.005Z,100728.38
2022-12-18T12:23:42.547Z,100730.95
2022-12-18T12:26:17.730Z,100731.62
2022-12-18T12:29:03.870Z,100732.16
2022-12-18T12:31:34.251Z,100730.74
2022-12-18T12:34:11.076Z,100739.09
2022-12-18T12:36:53.004Z,100746.50
2022-12-18T12:39:22.921Z,100748.09
2022-12-18T12:42:08.291Z,100748.92
2022-12-18T12:44:39.516Z,100758.19
2022-12-18T12:47:17.886Z,100766.64
2022-12-18T12:49:48.782Z,100770.31
2022-12-18T12:52:29.800Z,100771.70
2022-12-18T12:57:32.323Z,100785.06
2022-12-18T13:00:14.555Z,100798.67
2022-12-18T13:03:04.727Z,100802.55
2022-12-18T13:05:34.473Z,100806.27
2022-12-18T13:08:07.024Z,100804.67
2022-12-18T13:10:38.867Z,100815.70
2022-12-18T13:13:06.553Z,100813.70
2022-12-18T13:15:46.284Z,100813.98
2022-12-18T13:18:23.671Z,100824.15
2022-12-18T13:20:55.172Z,100823.64
2022-12-18T13:23:25.089Z,100828.98
2022-12-18T13:25:55.626Z,100831.77
2022-12-18T13:28:25.931Z,100828.89
2022-12-18T13:30:55.891Z,100836.98
2022-12-18T13:33:24.012Z,100841.68
2022-12-18T13:36:10.802Z,100847.62
2022-12-18T13:38:41.302Z,100860.13
2022-12-18T13:41:08.607Z,100864.61
2022-12-18T13:43:45.568Z,100867.67
2022-12-18T13:46:20.265Z,100866.20
2022-12-18T13:48:54.049Z,100867.67
2022-12-18T13:51:20.791Z,100872.40
2022-12-18T13:54:05.906Z,100881.09
2022-12-18T13:56:34.021Z,100883.31
2022-12-18T13:59:12.194Z,100886.95
2022-12-18T14:02:06.901Z,100886.74
2022-12-18T14:04:35.442Z,100899.20
2022-12-18T14:07:22.145Z,100898.02
2022-12-18T14:10:06.449Z,100911.86
2022-12-18T14:12:57.421Z,100917.30
2022-12-18T14:15:30.165Z,100924.55
2022-12-18T14:18:25.065Z,100922.05
2022-12-18T14:20:53.467Z,100939.48
2022-12-18T14:23:36.546Z,100940.23
2022-12-18T14:26:06.177Z,100950.69
2022-12-18T14:28:33.039Z,100958.63
2022-12-18T14:30:59.786Z,100964.98
2022-12-18T14:33:27.196Z,100963.73
2022-12-18T14:36:01.589Z,100968.38
2022-12-18T14:38:31.910Z,100971.09
2022-12-18T14:40:59.627Z,100970.34
2022-12-18T14:43:27.921Z,100969.80
2022-12-18T14:45:54.673Z,100974.15
2022-12-18T14:48:23.439Z,100977.95
2022-12-18T14:51:00.311Z,100980.89
2022-12-18T14:53:48.954Z,100981.08
2022-12-18T14:56:22.980Z,100982.80
2022-12-18T14:58:51.498Z,100983.61
2022-12-18T15:01:23.848Z,100985.04
2022-12-18T15:03:52.120Z,100987.77
2022-12-18T15:06:26.435Z,100988.87
2022-12-18T15:08:53.227Z,100996.30
2022-12-18T15:11:30.015Z,100999.38
2022-12-18T15:13:58.936Z,101001.36
2022-12-18T15:16:25.705Z,101005.73
2022-12-18T15:18:52.352Z,101011.40
2022-12-18T15:21:20.365Z,101014.33
2022-12-18T15:23:53.161Z,101018.30
2022-12-18T15:26:21.580Z,101021.98
2022-12-18T15:28:52.230Z,101018.71
2022-12-18T15:31:31.323Z,101028.16
2022-12-18T15:34:00.002Z,101034.34
2022-12-18T15:36:27.078Z,101038.00
2022-12-18T15:38:55.783Z,101043.52
2022-12-18T15:41:35.224Z,101048.66
2022-12-18T15:44:03.068Z,101047.80
2022-12-18T15:46:32.095Z,101050.52
2022-12-18T15:49:02.128Z,101058.31
2022-12-18T15:51:36.689Z,101064.33
2022-12-18T15:54:04.958Z,101067.14
2022-12-18T15:56:50.525Z,101069.58
2022-12-18T15:59:19.348Z,101076.81
2022-12-18T16:01:50.460Z,101080.66
2022-12-18T16:04:21.002Z,101091.50
2022-12-18T16:09:34.960Z,101102.19
2022-12-18T16:12:01.646Z,101104.21
2022-12-18T16:14:29.777Z,101115.19
2022-12-18T16:16:58.240Z,101119.42
2022-12-18T16:19:25.200Z,101127.08
2022-12-18T16:21:52.345Z,101133.88
2022-12-18T16:24:20.385Z,101140.59
2022-12-18T16:26:47.089Z,101147.61
2022-12-18T16:29:13.723Z,101149.85
2022-12-18T16:31:40.529Z,101159.33
2022-12-18T16:34:22.932Z,101159.11
2022-12-18T16:36:51.694Z,101163.59
2022-12-18T16:39:18.360Z,101168.46
2022-12-18T16:41:45.144Z,101167.63
2022-12-18T16:44:11.822Z,101175.22
2022-12-18T16:46:38.992Z,101182.19
2022-12-18T16:49:05.879Z,101180.56
2022-12-18T16:51:33.705Z,101177.89
2022-12-18T16:54:00.847Z,101180.45
2022-12-18T16:56:29.640Z,101187.85
2022-12-18T16:58:57.541Z,101189.60
2022-12-18T17:01:30.139Z,101187.69
2022-12-18T17:04:01.579Z,101203.83
2022-12-18T17:06:30.473Z,101208.61
2022-12-18T17:08:58.188Z,101204.55
2022-12-18T17:11:26.317Z,101206.05
2022-12-18T17:13:54.847Z,101205.16
2022-12-18T17:16:21.773Z,101214.24
2022-12-18T17:18:48.768Z,101223.36
2022-12-18T17:21:15.530Z,101224.96
2022-12-18T17:23:43.751Z,101229.92
2022-12-18T17:26:11.716Z,101231.54
2022-12-18T17:28:39.283Z,101236.06
2022-12-18T17:31:21.114Z,101245.15
2022-12-18T17:33:50.738Z,101250.72
2022-12-18T17:36:17.572Z,101248.54
2022-12-18T17:38:44.850Z,101251.73
2022-12-18T17:41:11.702Z,101257.20
2022-12-18T17:43:45.928Z,101263.19
2022-12-18T17:46:14.482Z,101266.58
2022-12-18T17:48:41.476Z,101268.02
2022-12-18T17:51:09.617Z,101273.17
2022-12-18T17:53:39.598Z,101277.25
2022-12-18T17:56:07.644Z,101274.77
2022-12-18T17:58:36.574Z,101275.15
2022-12-18T18:01:04.254Z,101279.33
2022-12-18T18:03:32.923Z,101281.00
2022-12-18T18:06:00.485Z,101279.63
2022-12-18T18:08:27.318Z,101291.13
2022-12-18T18:10:54.079Z,101300.39
2022-12-18T18:13:47.084Z,101299.42
2022-12-18T18:16:14.138Z,101304.79
2022-12-18T18:18:40.775Z,101312.84
2022-12-18T18:21:08.086Z,101318.80
2022-12-18T18:23:35.567Z,101325.61
2022-12-18T18:26:03.923Z,101328.59
2022-12-18T18:28:31.107Z,101332.48
2022-12-18T18:30:57.773Z,101335.67
2022-12-18T18:33:24.572Z,101337.88
2022-12-18T18:35:54.833Z,101337.22
2022-12-18T18:38:21.680Z,101342.89
2022-12-18T18:40:48.383Z,101342.45
2022-12-18T18:43:15.076Z,101348.36
2022-12-18T18:45:41.739Z,101354.84
2022-12-18T18:48:10.719Z,101361.99
2022-12-18T18:50:37.439Z,101365.79
2022-12-18T18:53:04.038Z,101368.22
2022-12-18T18:55:33.376Z,101373.91
2022-12-18T18:58:00.019Z,101380.24
2022-12-18T19:00:28.059Z,101377.23
2022-12-18T19:03:00.340Z,101380.98
2022-12-18T19:05:27.425Z,101388.86
2022-12-18T19:07:54.017Z,101393.34
2022-12-18T19:10:20.712Z,101395.13
2022-12-18T19:13:06.131Z,101398.46
2022-12-18T19:15:34.234Z,101403.64
2022-12-18T19:18:01.263Z,101407.56
2022-12-18T19:20:28.409Z,101420.55
2022-12-18T19:22:58.212Z,101420.66
2022-12-18T19:25:38.552Z,101427.60
2022-12-18T19:28:08.226Z,101425.79
2022-12-18T19:30:42.507Z,101429.30
2022-12-18T19:33:33.994Z,101429.72
2022-12-18T19:35:55.960Z,101438.70
2022-12-18T19:38:22.864Z,101446.52
2022-12-18T19:40:49.941Z,101450.71
2022-12-18T19:43:16.649Z,101460.92
2022-12-18T19:45:43.440Z,101458.52
2022-12-18T19:48:10.032Z,101459.98
2022-12-18T19:50:40.793Z,101468.42
2022-12-18T19:53:07.619Z,101474.86
2022-12-18T19:55:43.336Z,101479.16
2022-12-18T19:58:11.730Z,101481.45
2022-12-18T20:00:38.341Z,101488.51
2022-12-18T20:03:16.053Z,101490.84
2022-12-18T20:05:48.575Z,101494.17
2022-12-18T20:08:15.216Z,101496.67
2022-12-18T20:10:44.774Z,101507.04
2022-12-18T20:13:11.428Z,101511.15
2022-12-18T20:15:43.391Z,101510.26
2022-12-18T20:18:12.011Z,101512.64
2022-12-18T20:20:38.683Z,101511.19
2022-12-18T20:23:06.450Z,101514.02
2022-12-18T20:25:33.074Z,101518.34
2022-12-18T20:27:59.774Z,101522.69
2022-12-18T20:30:26.609Z,101532.45
2022-12-18T20:32:53.224Z,101526.02
2022-12-18T20:35:19.949Z,101531.73
2022-12-18T20:37:48.830Z,101536.98
2022-12-18T20:40:17.608Z,101539.16
2022-12-18T20:42:44.268Z,101543.80
2022-12-18T20:45:11.013Z,101551.88
2022-12-18T20:47:37.689Z,101552.43
2022-12-18T20:50:04.608Z,101559.18
2022-12-18T20:52:31.291Z,101555.29
2022-12-18T20:55:00.404Z,101558.17
2022-12-18T20:57:27.808Z,101562.89
2022-12-18T20:59:54.464Z,101570.51
2022-12-18T21:02:21.467Z,101577.38
2022-12-18T21:04:48.627Z,101577.42
2022-12-18T21:07:15.351Z,101578.40
2022-12-18T21:09:41.942Z,101579.27
2022-12-18T21:12:35.039Z,101585.08
2022-12-18T21:15:09.609Z,101583.47
2022-12-18T21:17:40.122Z,101582.53
2022-12-18T21:20:11.981Z,101582.65
2022-12-18T21:22:44.433Z,101582.22
2022-12-18T21:25:11.060Z,101585.14
2022-12-18T21:27:37.729Z,101589.31
2022-12-18T21:30:04.903Z,101594.34
2022-12-18T21:32:33.435Z,101598.20
2022-12-18T21:35:00.306Z,101604.97
2022-12-18T21:37:27.011Z,101606.64
2022-12-18T21:39:53.823Z,101608.84
2022-12-18T21:42:39.381Z,101614.05
2022-12-18T21:45:06.427Z,101619.96
2022-12-18T21:47:33.105Z,101617.76
2022-12-18T21:49:59.804Z,101608.69
2022-12-18T21:52:32.503Z,101611.69
2022-12-18T21:55:06.584Z,101616.11
2022-12-18T21:57:35.873Z,101616.27
2022-12-18T22:00:03.058Z,101622.98
2022-12-18T22:02:38.819Z,101629.45
2022-12-18T22:05:05.874Z,101631.10
2022-12-18T22:07:32.530Z,101635.18
2022-12-18T22:09:59.310Z,101629.93
2022-12-18T22:12:44.420Z,101635.92
2022-12-18T22:15:15.518Z,101637.20
2022-12-18T22:17:49.543Z,101640.04
2022-12-18T22:20:16.333Z,101643.38
2022-12-18T22:22:43.047Z,101646.59
2022-12-18T22:25:10.647Z,101648.10
2022-12-18T22:27:37.609Z,101650.91
2022-12-18T22:30:04.893Z,101652.75
2022-12-18T22:32:32.697Z,101654.62
2022-12-18T22:35:05.839Z,101654.21
2022-12-18T22:37:33.869Z,101659.77
2022-12-18T22:40:03.113Z,101662.34
2022-12-18T22:42:31.236Z,101664.60
2022-12-18T22:44:57.941Z,101672.44
2022-12-18T22:47:29.471Z,101677.69
2022-12-18T22:49:56.920Z,101682.39
2022-12-18T22:52:23.844Z,101686.09
2022-12-18T22:54:53.271Z,101683.77
2022-12-18T22:57:21.713Z,101690.67
2022-12-18T22:59:49.444Z,101694.06
2022-12-18T23:02:17.819Z,101695.45
2022-12-18T23:04:45.034Z,101693.70
2022-12-18T23:07:11.891Z,101692.15
2022-12-18T23:09:39.582Z,101691.19
2022-12-18T23:12:06.568Z,101682.73
2022-12-18T23:14:33.376Z,101688.11
2022-12-18T23:17:00.047Z,101694.44
2022-12-18T23:19:26.736Z,101695.27
2022-12-18T23:21:54.542Z,101703.77
2022-12-18T23:24:23.320Z,101696.84
2022-12-18T23:26:49.999Z,101694.63
2022-12-18T23:29:16.628Z,101699.52
2022-12-18T23:31:43.368Z,101703.13
2022-12-18T23:34:10.519Z,101703.93
2022-12-18T23:36:45.344Z,101713.73
2022-12-18T23:39:12.862Z,101716.98
2022-12-18T23:41:55.399Z,101721.67
2022-12-18T23:44:22.031Z,101722.28
2022-12-18T23:46:48.711Z,101725.95
2022-12-18T23:49:15.612Z,101727.83
2022-12-18T23:51:42.193Z,101730.91
2022-12-18T23:54:10.245Z,101732.63
2022-12-18T23:56:36.947Z,101730.59
2022-12-18T23:59:03.567Z,101734.81
